Terminal Aerodrome Forecast
Issued by NWS

Home | Current Version | Previous Version | Text Only | Print | Product List | Glossary On
Versions: 1 2 3 4 5 6 7 8 9 10 11 12 13 14 15 16 17 18 19 20 21 22
000
FTUS43 KICT 161122
TAFHUT
TAF
KHUT 161122Z 1612/1712 17009KT P6SM VCTS SCT008CB BKN040
      TEMPO 1612/1614 5SM -TSRA BR BKN008CB
     FM161400 18009KT P6SM SCT015 BKN080
     FM161900 20011KT P6SM VCTS BKN090CB
     FM162100 23012KT P6SM VCTS SCT050CB BKN080
     FM170000 31011KT P6SM VCTS SCT150CB
     FM170600 31008KT P6SM SCT200=

USA.gov is the U.S. government's official web portal to all federal, state and local government web resources and services.